sensor_id;sensor_type;location;lat;lon;timestamp;P1;durP1;ratioP1;P2;durP2;ratioP2
9986;SDS011;5033;46.310;11.214;2022-07-23T00:00:15;5.07;;;4.68;;
9986;SDS011;5033;46.310;11.214;2022-07-23T00:02:42;5.13;;;4.63;;
9986;SDS011;5033;46.310;11.214;2022-07-23T00:05:09;4.50;;;4.07;;
9986;SDS011;5033;46.310;11.214;2022-07-23T00:07:38;5.07;;;4.68;;
9986;SDS011;5033;46.310;11.214;2022-07-23T00:10:05;5.32;;;4.45;;
9986;SDS011;5033;46.310;11.214;2022-07-23T00:12:33;4.75;;;4.35;;
9986;SDS011;5033;46.310;11.214;2022-07-23T00:15:00;4.70;;;4.35;;
9986;SDS011;5033;46.310;11.214;2022-07-23T00:17:28;5.15;;;4.13;;
9986;SDS011;5033;46.310;11.214;2022-07-23T00:19:55;4.97;;;4.57;;
9986;SDS011;5033;46.310;11.214;2022-07-23T00:22:22;4.30;;;4.00;;
9986;SDS011;5033;46.310;11.214;2022-07-23T00:24:51;4.32;;;4.03;;
9986;SDS011;5033;46.310;11.214;2022-07-23T00:27:18;4.63;;;4.32;;
9986;SDS011;5033;46.310;11.214;2022-07-23T00:29:45;5.28;;;4.78;;
9986;SDS011;5033;46.310;11.214;2022-07-23T00:32:12;6.13;;;4.40;;
9986;SDS011;5033;46.310;11.214;2022-07-23T00:34:39;4.38;;;4.07;;
9986;SDS011;5033;46.310;11.214;2022-07-23T00:37:06;4.75;;;4.35;;
9986;SDS011;5033;46.310;11.214;2022-07-23T00:39:33;4.63;;;4.22;;
9986;SDS011;5033;46.310;11.214;2022-07-23T00:42:02;4.38;;;4.07;;
9986;SDS011;5033;46.310;11.214;2022-07-23T00:44:29;5.32;;;4.93;;
9986;SDS011;5033;46.310;11.214;2022-07-23T00:46:57;4.57;;;4.18;;
9986;SDS011;5033;46.310;11.214;2022-07-23T00:49:25;4.57;;;4.28;;
9986;SDS011;5033;46.310;11.214;2022-07-23T00:51:55;4.97;;;4.47;;
9986;SDS011;5033;46.310;11.214;2022-07-23T00:54:23;6.28;;;4.30;;
9986;SDS011;5033;46.310;11.214;2022-07-23T00:56:52;4.90;;;4.50;;
9986;SDS011;5033;46.310;11.214;2022-07-23T00:59:21;4.68;;;4.28;;
9986;SDS011;5033;46.310;11.214;2022-07-23T01:01:48;4.55;;;4.15;;
9986;SDS011;5033;46.310;11.214;2022-07-23T01:04:15;4.63;;;4.32;;
9986;SDS011;5033;46.310;11.214;2022-07-23T01:06:43;4.50;;;4.10;;
9986;SDS011;5033;46.310;11.214;2022-07-23T01:09:10;4.30;;;4.00;;
9986;SDS011;5033;46.310;11.214;2022-07-23T01:11:38;4.45;;;4.13;;
9986;SDS011;5033;46.310;11.214;2022-07-23T01:14:09;4.30;;;3.90;;
9986;SDS011;5033;46.310;11.214;2022-07-23T01:16:39;4.63;;;4.32;;
9986;SDS011;5033;46.310;11.214;2022-07-23T01:19:06;4.07;;;3.78;;
9986;SDS011;5033;46.310;11.214;2022-07-23T01:21:37;4.10;;;3.80;;
9986;SDS011;5033;46.310;11.214;2022-07-23T01:24:07;5.00;;;4.60;;
9986;SDS011;5033;46.310;11.214;2022-07-23T01:29:21;5.07;;;4.68;;
9986;SDS011;5033;46.310;11.214;2022-07-23T01:31:48;4.65;;;4.22;;
9986;SDS011;5033;46.310;11.214;2022-07-23T01:34:16;5.15;;;4.75;;
9986;SDS011;5033;46.310;11.214;2022-07-23T01:36:43;7.75;;;4.90;;
9986;SDS011;5033;46.310;11.214;2022-07-23T01:39:12;5.20;;;4.80;;
9986;SDS011;5033;46.310;11.214;2022-07-23T01:41:39;4.90;;;4.50;;
9986;SDS011;5033;46.310;11.214;2022-07-23T01:44:06;4.82;;;4.32;;
9986;SDS011;5033;46.310;11.214;2022-07-23T01:46:33;5.07;;;4.55;;
9986;SDS011;5033;46.310;11.214;2022-07-23T01:49:00;5.20;;;4.57;;
9986;SDS011;5033;46.310;11.214;2022-07-23T01:51:27;5.00;;;4.60;;
9986;SDS011;5033;46.310;11.214;2022-07-23T01:53:54;5.40;;;4.90;;
9986;SDS011;5033;46.310;11.214;2022-07-23T01:56:23;5.40;;;5.00;;
9986;SDS011;5033;46.310;11.214;2022-07-23T01:58:56;5.55;;;5.10;;
9986;SDS011;5033;46.310;11.214;2022-07-23T02:01:23;4.70;;;4.40;;
9986;SDS011;5033;46.310;11.214;2022-07-23T02:03:50;4.75;;;4.35;;
9986;SDS011;5033;46.310;11.214;2022-07-23T02:06:17;4.55;;;4.18;;
9986;SDS011;5033;46.310;11.214;2022-07-23T02:08:44;4.40;;;4.00;;
9986;SDS011;5033;46.310;11.214;2022-07-23T02:11:11;4.47;;;4.10;;
9986;SDS011;5033;46.310;11.214;2022-07-23T02:13:40;4.07;;;3.78;;
9986;SDS011;5033;46.310;11.214;2022-07-23T02:16:07;5.07;;;4.57;;
9986;SDS011;5033;46.310;11.214;2022-07-23T02:18:34;4.20;;;3.88;;
9986;SDS011;5033;46.310;11.214;2022-07-23T02:21:01;4.47;;;4.07;;
9986;SDS011;5033;46.310;11.214;2022-07-23T02:23:28;4.50;;;4.10;;
9986;SDS011;5033;46.310;11.214;2022-07-23T02:25:55;4.55;;;4.25;;
9986;SDS011;5033;46.310;11.214;2022-07-23T02:28:22;4.50;;;4.10;;
9986;SDS011;5033;46.310;11.214;2022-07-23T02:30:51;4.03;;;3.72;;
9986;SDS011;5033;46.310;11.214;2022-07-23T02:33:18;4.95;;;4.65;;
9986;SDS011;5033;46.310;11.214;2022-07-23T02:35:45;4.30;;;4.00;;
9986;SDS011;5033;46.310;11.214;2022-07-23T02:38:12;5.20;;;4.80;;
9986;SDS011;5033;46.310;11.214;2022-07-23T02:40:39;5.70;;;5.20;;
9986;SDS011;5033;46.310;11.214;2022-07-23T02:43:06;5.95;;;4.97;;
9986;SDS011;5033;46.310;11.214;2022-07-23T02:45:34;4.75;;;4.35;;
9986;SDS011;5033;46.310;11.214;2022-07-23T02:48:02;4.90;;;4.50;;
9986;SDS011;5033;46.310;11.214;2022-07-23T02:50:30;4.82;;;4.43;;
9986;SDS011;5033;46.310;11.214;2022-07-23T02:52:57;4.45;;;4.13;;
9986;SDS011;5033;46.310;11.214;2022-07-23T02:55:24;4.20;;;3.90;;
9986;SDS011;5033;46.310;11.214;2022-07-23T02:57:52;4.97;;;4.57;;
9986;SDS011;5033;46.310;11.214;2022-07-23T03:00:19;4.78;;;4.47;;
9986;SDS011;5033;46.310;11.214;2022-07-23T03:02:46;5.00;;;4.50;;
9986;SDS011;5033;46.310;11.214;2022-07-23T03:05:14;5.05;;;4.55;;
9986;SDS011;5033;46.310;11.214;2022-07-23T03:07:41;4.72;;;4.32;;
9986;SDS011;5033;46.310;11.214;2022-07-23T03:10:08;4.85;;;4.45;;
9986;SDS011;5033;46.310;11.214;2022-07-23T03:12:36;5.18;;;4.50;;
9986;SDS011;5033;46.310;11.214;2022-07-23T03:15:03;5.43;;;5.03;;
9986;SDS011;5033;46.310;11.214;2022-07-23T03:17:31;5.22;;;4.72;;
9986;SDS011;5033;46.310;11.214;2022-07-23T03:19:58;5.07;;;4.68;;
9986;SDS011;5033;46.310;11.214;2022-07-23T03:22:27;4.32;;;4.00;;
9986;SDS011;5033;46.310;11.214;2022-07-23T03:24:54;4.60;;;4.25;;
9986;SDS011;5033;46.310;11.214;2022-07-23T03:27:21;4.20;;;3.90;;
9986;SDS011;5033;46.310;11.214;2022-07-23T03:29:49;5.10;;;4.57;;
9986;SDS011;5033;46.310;11.214;2022-07-23T03:32:16;4.65;;;4.35;;
9986;SDS011;5033;46.310;11.214;2022-07-23T03:34:44;5.00;;;4.50;;
9986;SDS011;5033;46.310;11.214;2022-07-23T03:37:11;4.85;;;4.40;;
9986;SDS011;5033;46.310;11.214;2022-07-23T03:39:39;5.20;;;4.80;;
9986;SDS011;5033;46.310;11.214;2022-07-23T03:42:06;7.55;;;5.78;;
9986;SDS011;5033;46.310;11.214;2022-07-23T03:44:34;5.43;;;4.93;;
9986;SDS011;5033;46.310;11.214;2022-07-23T03:47:02;6.18;;;5.53;;
9986;SDS011;5033;46.310;11.214;2022-07-23T03:49:29;6.30;;;5.70;;
9986;SDS011;5033;46.310;11.214;2022-07-23T03:51:56;6.72;;;6.15;;
9986;SDS011;5033;46.310;11.214;2022-07-23T03:54:23;9.05;;;7.40;;
9986;SDS011;5033;46.310;11.214;2022-07-23T03:56:51;7.63;;;6.85;;
9986;SDS011;5033;46.310;11.214;2022-07-23T03:59:19;6.55;;;6.05;;
9986;SDS011;5033;46.310;11.214;2022-07-23T04:01:46;6.50;;;5.90;;
9986;SDS011;5033;46.310;11.214;2022-07-23T04:04:13;6.15;;;5.57;;
9986;SDS011;5033;46.310;11.214;2022-07-23T04:06:40;6.90;;;6.10;;
9986;SDS011;5033;46.310;11.214;2022-07-23T04:09:07;5.82;;;5.28;;
9986;SDS011;5033;46.310;11.214;2022-07-23T04:14:58;7.28;;;6.50;;
9986;SDS011;5033;46.310;11.214;2022-07-23T04:17:25;5.95;;;5.45;;
9986;SDS011;5033;46.310;11.214;2022-07-23T04:19:52;5.50;;;5.10;;
9986;SDS011;5033;46.310;11.214;2022-07-23T04:22:19;4.97;;;4.57;;
9986;SDS011;5033;46.310;11.214;2022-07-23T04:24:46;4.40;;;4.00;;
9986;SDS011;5033;46.310;11.214;2022-07-23T04:27:14;6.63;;;5.93;;
9986;SDS011;5033;46.310;11.214;2022-07-23T04:29:41;6.70;;;5.80;;
9986;SDS011;5033;46.310;11.214;2022-07-23T04:32:10;7.65;;;5.68;;
9986;SDS011;5033;46.310;11.214;2022-07-23T04:34:37;5.03;;;4.63;;
9986;SDS011;5033;46.310;11.214;2022-07-23T04:37:04;4.22;;;3.90;;
9986;SDS011;5033;46.310;11.214;2022-07-23T04:39:31;4.03;;;3.65;;
9986;SDS011;5033;46.310;11.214;2022-07-23T04:41:58;5.03;;;3.90;;
9986;SDS011;5033;46.310;11.214;2022-07-23T04:44:25;6.63;;;4.97;;
9986;SDS011;5033;46.310;11.214;2022-07-23T04:46:52;4.60;;;4.20;;
9986;SDS011;5033;46.310;11.214;2022-07-23T04:49:21;7.40;;;4.68;;
9986;SDS011;5033;46.310;11.214;2022-07-23T04:51:48;4.32;;;3.95;;
9986;SDS011;5033;46.310;11.214;2022-07-23T04:54:15;4.60;;;2.70;;
9986;SDS011;5033;46.310;11.214;2022-07-23T04:56:42;2.78;;;2.58;;
9986;SDS011;5033;46.310;11.214;2022-07-23T04:59:09;2.58;;;2.35;;
9986;SDS011;5033;46.310;11.214;2022-07-23T05:01:36;2.22;;;2.00;;
9986;SDS011;5033;46.310;11.214;2022-07-23T05:04:03;5.18;;;2.22;;
9986;SDS011;5033;46.310;11.214;2022-07-23T05:06:33;2.60;;;1.63;;
9986;SDS011;5033;46.310;11.214;2022-07-23T05:09:00;1.60;;;1.50;;
9986;SDS011;5033;46.310;11.214;2022-07-23T05:11:27;1.70;;;1.30;;
9986;SDS011;5033;46.310;11.214;2022-07-23T05:13:54;2.55;;;1.38;;
9986;SDS011;5033;46.310;11.214;2022-07-23T05:16:22;2.42;;;1.23;;
9986;SDS011;5033;46.310;11.214;2022-07-23T05:18:49;5.53;;;1.30;;
9986;SDS011;5033;46.310;11.214;2022-07-23T05:21:16;1.40;;;1.30;;
9986;SDS011;5033;46.310;11.214;2022-07-23T05:23:44;1.48;;;1.38;;
9986;SDS011;5033;46.310;11.214;2022-07-23T05:26:11;1.33;;;1.25;;
9986;SDS011;5033;46.310;11.214;2022-07-23T05:28:38;1.30;;;1.20;;
9986;SDS011;5033;46.310;11.214;2022-07-23T05:31:05;1.52;;;1.30;;
9986;SDS011;5033;46.310;11.214;2022-07-23T05:33:32;1.40;;;1.30;;
9986;SDS011;5033;46.310;11.214;2022-07-23T05:36:00;2.67;;;1.40;;
9986;SDS011;5033;46.310;11.214;2022-07-23T05:38:28;0.93;;;0.93;;
9986;SDS011;5033;46.310;11.214;2022-07-23T05:40:56;1.27;;;1.20;;
9986;SDS011;5033;46.310;11.214;2022-07-23T05:43:24;1.00;;;1.00;;
9986;SDS011;5033;46.310;11.214;2022-07-23T05:45:51;1.55;;;1.30;;
9986;SDS011;5033;46.310;11.214;2022-07-23T05:48:18;1.13;;;1.02;;
9986;SDS011;5033;46.310;11.214;2022-07-23T05:50:46;1.00;;;1.00;;
9986;SDS011;5033;46.310;11.214;2022-07-23T05:53:13;0.88;;;0.88;;
9986;SDS011;5033;46.310;11.214;2022-07-23T05:55:40;1.05;;;1.05;;
9986;SDS011;5033;46.310;11.214;2022-07-23T05:58:09;1.08;;;0.85;;
9986;SDS011;5033;46.310;11.214;2022-07-23T06:00:36;1.42;;;1.08;;
9986;SDS011;5033;46.310;11.214;2022-07-23T06:03:03;1.58;;;1.35;;
9986;SDS011;5033;46.310;11.214;2022-07-23T06:05:30;1.55;;;1.45;;
9986;SDS011;5033;46.310;11.214;2022-07-23T06:07:57;1.88;;;1.45;;
9986;SDS011;5033;46.310;11.214;2022-07-23T06:10:24;1.80;;;1.60;;
9986;SDS011;5033;46.310;11.214;2022-07-23T06:12:51;1.55;;;1.45;;
9986;SDS011;5033;46.310;11.214;2022-07-23T06:15:20;1.95;;;1.40;;
9986;SDS011;5033;46.310;11.214;2022-07-23T06:17:47;1.60;;;1.40;;
9986;SDS011;5033;46.310;11.214;2022-07-23T06:20:14;1.73;;;1.30;;
9986;SDS011;5033;46.310;11.214;2022-07-23T06:22:41;1.27;;;1.10;;
9986;SDS011;5033;46.310;11.214;2022-07-23T06:25:08;1.30;;;1.20;;
9986;SDS011;5033;46.310;11.214;2022-07-23T06:27:35;2.45;;;1.20;;
9986;SDS011;5033;46.310;11.214;2022-07-23T06:30:03;1.60;;;1.50;;
9986;SDS011;5033;46.310;11.214;2022-07-23T06:32:32;1.88;;;1.48;;
9986;SDS011;5033;46.310;11.214;2022-07-23T06:34:59;1.95;;;1.60;;
9986;SDS011;5033;46.310;11.214;2022-07-23T06:37:26;1.77;;;1.67;;
9986;SDS011;5033;46.310;11.214;2022-07-23T06:39:53;1.83;;;1.70;;
9986;SDS011;5033;46.310;11.214;2022-07-23T06:42:21;2.67;;;1.50;;
9986;SDS011;5033;46.310;11.214;2022-07-23T06:44:48;3.50;;;1.60;;
9986;SDS011;5033;46.310;11.214;2022-07-23T06:47:15;2.05;;;1.70;;
9986;SDS011;5033;46.310;11.214;2022-07-23T06:49:43;1.77;;;1.63;;
9986;SDS011;5033;46.310;11.214;2022-07-23T06:52:10;2.40;;;1.58;;
9986;SDS011;5033;46.310;11.214;2022-07-23T06:54:37;5.20;;;2.00;;
9986;SDS011;5033;46.310;11.214;2022-07-23T06:57:04;3.75;;;1.90;;
9986;SDS011;5033;46.310;11.214;2022-07-23T06:59:31;3.33;;;2.10;;
9986;SDS011;5033;46.310;11.214;2022-07-23T07:02:01;2.03;;;1.65;;
9986;SDS011;5033;46.310;11.214;2022-07-23T07:04:28;3.22;;;1.70;;
9986;SDS011;5033;46.310;11.214;2022-07-23T07:06:56;1.98;;;1.77;;
9986;SDS011;5033;46.310;11.214;2022-07-23T07:09:23;2.17;;;1.85;;
9986;SDS011;5033;46.310;11.214;2022-07-23T07:11:51;1.80;;;1.70;;
9986;SDS011;5033;46.310;11.214;2022-07-23T07:14:18;2.05;;;1.75;;
9986;SDS011;5033;46.310;11.214;2022-07-23T07:16:45;2.08;;;1.70;;
9986;SDS011;5033;46.310;11.214;2022-07-23T07:19:12;2.10;;;1.90;;
9986;SDS011;5033;46.310;11.214;2022-07-23T07:21:39;1.90;;;1.80;;
9986;SDS011;5033;46.310;11.214;2022-07-23T07:24:08;2.03;;;1.83;;
9986;SDS011;5033;46.310;11.214;2022-07-23T07:26:35;1.80;;;1.70;;
9986;SDS011;5033;46.310;11.214;2022-07-23T07:29:03;1.70;;;1.60;;
9986;SDS011;5033;46.310;11.214;2022-07-23T07:31:30;2.35;;;2.00;;
9986;SDS011;5033;46.310;11.214;2022-07-23T07:33:58;2.25;;;1.90;;
9986;SDS011;5033;46.310;11.214;2022-07-23T07:36:25;2.30;;;2.10;;
9986;SDS011;5033;46.310;11.214;2022-07-23T07:38:52;2.05;;;1.90;;
9986;SDS011;5033;46.310;11.214;2022-07-23T07:41:20;2.33;;;1.92;;
9986;SDS011;5033;46.310;11.214;2022-07-23T07:43:49;1.90;;;1.80;;
9986;SDS011;5033;46.310;11.214;2022-07-23T07:46:16;1.90;;;1.80;;
9986;SDS011;5033;46.310;11.214;2022-07-23T07:48:43;2.33;;;2.03;;
9986;SDS011;5033;46.310;11.214;2022-07-23T07:51:11;2.85;;;1.90;;
9986;SDS011;5033;46.310;11.214;2022-07-23T07:53:38;3.40;;;2.00;;
9986;SDS011;5033;46.310;11.214;2022-07-23T07:56:05;2.40;;;2.20;;
9986;SDS011;5033;46.310;11.214;2022-07-23T07:58:34;3.00;;;2.20;;
9986;SDS011;5033;46.310;11.214;2022-07-23T08:01:01;1.85;;;1.75;;
9986;SDS011;5033;46.310;11.214;2022-07-23T08:03:28;2.05;;;1.85;;
9986;SDS011;5033;46.310;11.214;2022-07-23T08:05:55;2.50;;;1.90;;
9986;SDS011;5033;46.310;11.214;2022-07-23T08:08:22;1.77;;;1.67;;
9986;SDS011;5033;46.310;11.214;2022-07-23T08:10:50;2.60;;;1.98;;
9986;SDS011;5033;46.310;11.214;2022-07-23T08:13:17;1.90;;;1.80;;
9986;SDS011;5033;46.310;11.214;2022-07-23T08:15:45;2.05;;;1.95;;
9986;SDS011;5033;46.310;11.214;2022-07-23T08:18:12;2.13;;;1.95;;
9986;SDS011;5033;46.310;11.214;2022-07-23T08:20:40;2.13;;;1.92;;
9986;SDS011;5033;46.310;11.214;2022-07-23T08:23:07;1.80;;;1.70;;
9986;SDS011;5033;46.310;11.214;2022-07-23T08:25:36;3.08;;;1.80;;
9986;SDS011;5033;46.310;11.214;2022-07-23T08:28:04;1.95;;;1.85;;
9986;SDS011;5033;46.310;11.214;2022-07-23T08:30:33;1.80;;;1.70;;
9986;SDS011;5033;46.310;11.214;2022-07-23T08:33:02;2.55;;;1.85;;
9986;SDS011;5033;46.310;11.214;2022-07-23T08:35:32;2.33;;;1.90;;
9986;SDS011;5033;46.310;11.214;2022-07-23T08:38:02;3.08;;;2.17;;
9986;SDS011;5033;46.310;11.214;2022-07-23T08:40:31;2.25;;;2.03;;
9986;SDS011;5033;46.310;11.214;2022-07-23T08:42:59;2.00;;;1.80;;
9986;SDS011;5033;46.310;11.214;2022-07-23T08:45:30;3.47;;;1.85;;
9986;SDS011;5033;46.310;11.214;2022-07-23T08:48:02;2.05;;;1.92;;
9986;SDS011;5033;46.310;11.214;2022-07-23T08:50:31;2.15;;;1.90;;
9986;SDS011;5033;46.310;11.214;2022-07-23T08:53:01;2.25;;;1.95;;
9986;SDS011;5033;46.310;11.214;2022-07-23T08:55:31;2.60;;;1.90;;
9986;SDS011;5033;46.310;11.214;2022-07-23T08:57:59;1.98;;;1.73;;
9986;SDS011;5033;46.310;11.214;2022-07-23T09:00:26;2.53;;;1.60;;
9986;SDS011;5033;46.310;11.214;2022-07-23T09:02:53;2.55;;;1.88;;
9986;SDS011;5033;46.310;11.214;2022-07-23T09:05:22;1.90;;;1.70;;
9986;SDS011;5033;46.310;11.214;2022-07-23T09:08:08;1.90;;;1.80;;
9986;SDS011;5033;46.310;11.214;2022-07-23T09:10:47;1.88;;;1.77;;
9986;SDS011;5033;46.310;11.214;2022-07-23T09:13:23;2.08;;;1.88;;
9986;SDS011;5033;46.310;11.214;2022-07-23T09:15:58;3.25;;;1.83;;
9986;SDS011;5033;46.310;11.214;2022-07-23T09:18:30;2.10;;;1.90;;
9986;SDS011;5033;46.310;11.214;2022-07-23T09:21:06;2.03;;;1.83;;
9986;SDS011;5033;46.310;11.214;2022-07-23T09:23:38;2.08;;;1.88;;
9986;SDS011;5033;46.310;11.214;2022-07-23T09:29:06;2.17;;;1.95;;
9986;SDS011;5033;46.310;11.214;2022-07-23T09:31:45;1.70;;;1.60;;
9986;SDS011;5033;46.310;11.214;2022-07-23T09:34:15;1.90;;;1.67;;
9986;SDS011;5033;46.310;11.214;2022-07-23T09:36:45;1.77;;;1.67;;
9986;SDS011;5033;46.310;11.214;2022-07-23T09:39:14;2.38;;;1.80;;
9986;SDS011;5033;46.310;11.214;2022-07-23T09:41:43;1.80;;;1.70;;
9986;SDS011;5033;46.310;11.214;2022-07-23T09:44:12;1.63;;;1.52;;
9986;SDS011;5033;46.310;11.214;2022-07-23T09:46:41;2.30;;;1.80;;
9986;SDS011;5033;46.310;11.214;2022-07-23T09:49:10;1.85;;;1.60;;
9986;SDS011;5033;46.310;11.214;2022-07-23T09:51:46;2.55;;;1.83;;
9986;SDS011;5033;46.310;11.214;2022-07-23T09:54:22;2.20;;;2.00;;
9986;SDS011;5033;46.310;11.214;2022-07-23T09:56:53;1.70;;;1.60;;
9986;SDS011;5033;46.310;11.214;2022-07-23T09:59:22;2.13;;;2.03;;
9986;SDS011;5033;46.310;11.214;2022-07-23T10:01:52;2.53;;;1.90;;
9986;SDS011;5033;46.310;11.214;2022-07-23T10:04:21;1.92;;;1.83;;
9986;SDS011;5033;46.310;11.214;2022-07-23T10:06:52;2.10;;;1.90;;
9986;SDS011;5033;46.310;11.214;2022-07-23T10:09:22;2.92;;;1.98;;
9986;SDS011;5033;46.310;11.214;2022-07-23T10:11:52;4.10;;;2.10;;
9986;SDS011;5033;46.310;11.214;2022-07-23T10:14:25;2.65;;;2.17;;
9986;SDS011;5033;46.310;11.214;2022-07-23T10:16:56;2.10;;;1.90;;
9986;SDS011;5033;46.310;11.214;2022-07-23T10:19:24;1.88;;;1.77;;
9986;SDS011;5033;46.310;11.214;2022-07-23T10:21:56;2.30;;;2.10;;
9986;SDS011;5033;46.310;11.214;2022-07-23T10:24:33;2.50;;;1.83;;
9986;SDS011;5033;46.310;11.214;2022-07-23T10:27:26;2.25;;;1.90;;
9986;SDS011;5033;46.310;11.214;2022-07-23T10:30:10;1.83;;;1.73;;
9986;SDS011;5033;46.310;11.214;2022-07-23T10:32:44;2.72;;;1.90;;
9986;SDS011;5033;46.310;11.214;2022-07-23T10:35:21;1.80;;;1.70;;
9986;SDS011;5033;46.310;11.214;2022-07-23T10:37:56;3.15;;;2.10;;
9986;SDS011;5033;46.310;11.214;2022-07-23T10:40:28;2.38;;;2.17;;
9986;SDS011;5033;46.310;11.214;2022-07-23T10:42:58;2.38;;;2.17;;
9986;SDS011;5033;46.310;11.214;2022-07-23T10:45:28;1.98;;;1.77;;
9986;SDS011;5033;46.310;11.214;2022-07-23T10:48:11;2.30;;;1.90;;
9986;SDS011;5033;46.310;11.214;2022-07-23T10:50:40;2.05;;;1.95;;
9986;SDS011;5033;46.310;11.214;2022-07-23T10:53:14;2.22;;;2.03;;
9986;SDS011;5033;46.310;11.214;2022-07-23T10:55:44;2.60;;;2.25;;
9986;SDS011;5033;46.310;11.214;2022-07-23T10:58:18;3.40;;;2.22;;
9986;SDS011;5033;46.310;11.214;2022-07-23T11:00:47;2.70;;;2.05;;
9986;SDS011;5033;46.310;11.214;2022-07-23T11:03:28;1.90;;;1.70;;
9986;SDS011;5033;46.310;11.214;2022-07-23T11:06:01;2.85;;;1.98;;
9986;SDS011;5033;46.310;11.214;2022-07-23T11:08:30;2.55;;;1.80;;
9986;SDS011;5033;46.310;11.214;2022-07-23T11:11:08;2.15;;;1.98;;
9986;SDS011;5033;46.310;11.214;2022-07-23T11:13:41;2.33;;;2.10;;
9986;SDS011;5033;46.310;11.214;2022-07-23T11:16:12;2.10;;;1.90;;
9986;SDS011;5033;46.310;11.214;2022-07-23T11:21:48;2.25;;;1.80;;
9986;SDS011;5033;46.310;11.214;2022-07-23T11:24:19;2.15;;;1.95;;
9986;SDS011;5033;46.310;11.214;2022-07-23T11:26:49;1.65;;;1.55;;
9986;SDS011;5033;46.310;11.214;2022-07-23T11:32:30;2.10;;;1.80;;
9986;SDS011;5033;46.310;11.214;2022-07-23T11:35:18;2.17;;;1.98;;
9986;SDS011;5033;46.310;11.214;2022-07-23T11:37:47;2.03;;;1.83;;
9986;SDS011;5033;46.310;11.214;2022-07-23T11:40:20;2.40;;;2.20;;
9986;SDS011;5033;46.310;11.214;2022-07-23T11:42:52;2.17;;;2.08;;
9986;SDS011;5033;46.310;11.214;2022-07-23T11:45:22;2.10;;;1.90;;
9986;SDS011;5033;46.310;11.214;2022-07-23T11:47:52;1.90;;;1.80;;
9986;SDS011;5033;46.310;11.214;2022-07-23T11:50:22;1.77;;;1.63;;
9986;SDS011;5033;46.310;11.214;2022-07-23T11:52:51;2.00;;;1.60;;
9986;SDS011;5033;46.310;11.214;2022-07-23T11:55:20;1.75;;;1.60;;
9986;SDS011;5033;46.310;11.214;2022-07-23T11:57:50;1.70;;;1.60;;
9986;SDS011;5033;46.310;11.214;2022-07-23T12:00:19;1.80;;;1.70;;
9986;SDS011;5033;46.310;11.214;2022-07-23T12:02:49;1.67;;;1.58;;
9986;SDS011;5033;46.310;11.214;2022-07-23T12:05:19;1.70;;;1.60;;
9986;SDS011;5033;46.310;11.214;2022-07-23T12:07:48;2.22;;;1.80;;
9986;SDS011;5033;46.310;11.214;2022-07-23T12:10:18;2.23;;;2.00;;
9986;SDS011;5033;46.310;11.214;2022-07-23T12:12:52;2.55;;;1.73;;
9986;SDS011;5033;46.310;11.214;2022-07-23T12:15:22;2.08;;;1.98;;
9986;SDS011;5033;46.310;11.214;2022-07-23T12:17:52;1.52;;;1.42;;
9986;SDS011;5033;46.310;11.214;2022-07-23T12:20:22;2.00;;;1.80;;
9986;SDS011;5033;46.310;11.214;2022-07-23T12:22:52;1.73;;;1.63;;
9986;SDS011;5033;46.310;11.214;2022-07-23T12:25:23;2.13;;;1.58;;
9986;SDS011;5033;46.310;11.214;2022-07-23T12:28:01;1.80;;;1.70;;
9986;SDS011;5033;46.310;11.214;2022-07-23T12:30:32;1.80;;;1.70;;
9986;SDS011;5033;46.310;11.214;2022-07-23T12:33:04;2.25;;;1.80;;
9986;SDS011;5033;46.310;11.214;2022-07-23T12:35:34;1.85;;;1.60;;
9986;SDS011;5033;46.310;11.214;2022-07-23T12:38:06;2.70;;;1.73;;
9986;SDS011;5033;46.310;11.214;2022-07-23T12:40:37;1.52;;;1.42;;
9986;SDS011;5033;46.310;11.214;2022-07-23T12:43:17;1.58;;;1.48;;
9986;SDS011;5033;46.310;11.214;2022-07-23T12:45:48;1.60;;;1.50;;
9986;SDS011;5033;46.310;11.214;2022-07-23T12:48:17;2.03;;;1.77;;
9986;SDS011;5033;46.310;11.214;2022-07-23T12:50:54;1.73;;;1.63;;
9986;SDS011;5033;46.310;11.214;2022-07-23T12:53:24;1.60;;;1.50;;
9986;SDS011;5033;46.310;11.214;2022-07-23T12:55:59;1.70;;;1.60;;
9986;SDS011;5033;46.310;11.214;2022-07-23T12:58:40;2.08;;;1.60;;
9986;SDS011;5033;46.310;11.214;2022-07-23T13:01:10;1.83;;;1.73;;
9986;SDS011;5033;46.310;11.214;2022-07-23T13:03:55;1.85;;;1.65;;
9986;SDS011;5033;46.310;11.214;2022-07-23T13:06:24;2.15;;;1.60;;
9986;SDS011;5033;46.310;11.214;2022-07-23T13:08:53;1.63;;;1.52;;
9986;SDS011;5033;46.310;11.214;2022-07-23T13:11:21;1.80;;;1.70;;
9986;SDS011;5033;46.310;11.214;2022-07-23T13:13:50;1.63;;;1.52;;
9986;SDS011;5033;46.310;11.214;2022-07-23T13:16:18;1.88;;;1.67;;
9986;SDS011;5033;46.310;11.214;2022-07-23T13:18:46;2.72;;;1.92;;
9986;SDS011;5033;46.310;11.214;2022-07-23T13:21:14;2.25;;;1.88;;
9986;SDS011;5033;46.310;11.214;2022-07-23T13:23:42;1.50;;;1.40;;
9986;SDS011;5033;46.310;11.214;2022-07-23T13:26:10;1.70;;;1.60;;
9986;SDS011;5033;46.310;11.214;2022-07-23T13:28:38;1.98;;;1.88;;
9986;SDS011;5033;46.310;11.214;2022-07-23T13:31:07;3.03;;;1.65;;
9986;SDS011;5033;46.310;11.214;2022-07-23T13:33:35;1.95;;;1.70;;
9986;SDS011;5033;46.310;11.214;2022-07-23T13:36:03;1.60;;;1.50;;
9986;SDS011;5033;46.310;11.214;2022-07-23T13:38:32;2.00;;;1.90;;
9986;SDS011;5033;46.310;11.214;2022-07-23T13:40:59;1.60;;;1.50;;
9986;SDS011;5033;46.310;11.214;2022-07-23T13:43:28;1.60;;;1.50;;
9986;SDS011;5033;46.310;11.214;2022-07-23T13:45:56;1.60;;;1.50;;
9986;SDS011;5033;46.310;11.214;2022-07-23T13:48:26;2.10;;;1.70;;
9986;SDS011;5033;46.310;11.214;2022-07-23T13:50:54;1.92;;;1.80;;
9986;SDS011;5033;46.310;11.214;2022-07-23T13:53:23;1.95;;;1.70;;
9986;SDS011;5033;46.310;11.214;2022-07-23T13:55:51;2.20;;;2.00;;
9986;SDS011;5033;46.310;11.214;2022-07-23T13:58:20;1.67;;;1.58;;
9986;SDS011;5033;46.310;11.214;2022-07-23T14:00:49;1.85;;;1.75;;
9986;SDS011;5033;46.310;11.214;2022-07-23T14:03:18;2.47;;;1.85;;
9986;SDS011;5033;46.310;11.214;2022-07-23T14:05:50;2.22;;;1.88;;
9986;SDS011;5033;46.310;11.214;2022-07-23T14:08:19;1.90;;;1.80;;
9986;SDS011;5033;46.310;11.214;2022-07-23T14:10:47;2.97;;;1.73;;
9986;SDS011;5033;46.310;11.214;2022-07-23T14:13:14;3.30;;;1.85;;
9986;SDS011;5033;46.310;11.214;2022-07-23T14:15:42;2.03;;;1.92;;
9986;SDS011;5033;46.310;11.214;2022-07-23T14:18:11;1.80;;;1.70;;
9986;SDS011;5033;46.310;11.214;2022-07-23T14:20:38;1.73;;;1.63;;
9986;SDS011;5033;46.310;11.214;2022-07-23T14:23:07;3.25;;;1.70;;
9986;SDS011;5033;46.310;11.214;2022-07-23T14:25:36;2.13;;;2.03;;
9986;SDS011;5033;46.310;11.214;2022-07-23T14:28:04;2.28;;;2.10;;
9986;SDS011;5033;46.310;11.214;2022-07-23T14:30:31;2.15;;;1.95;;
9986;SDS011;5033;46.310;11.214;2022-07-23T14:33:00;2.35;;;2.15;;
9986;SDS011;5033;46.310;11.214;2022-07-23T14:35:28;2.60;;;2.40;;
9986;SDS011;5033;46.310;11.214;2022-07-23T14:37:55;2.00;;;1.90;;
9986;SDS011;5033;46.310;11.214;2022-07-23T14:40:25;2.20;;;2.10;;
9986;SDS011;5033;46.310;11.214;2022-07-23T14:42:52;2.22;;;2.13;;
9986;SDS011;5033;46.310;11.214;2022-07-23T14:45:20;2.22;;;2.03;;
9986;SDS011;5033;46.310;11.214;2022-07-23T14:47:48;2.00;;;1.90;;
9986;SDS011;5033;46.310;11.214;2022-07-23T14:50:16;3.63;;;2.08;;
9986;SDS011;5033;46.310;11.214;2022-07-23T14:52:44;2.75;;;2.55;;
9986;SDS011;5033;46.310;11.214;2022-07-23T14:55:12;2.67;;;2.03;;
9986;SDS011;5033;46.310;11.214;2022-07-23T14:57:43;2.80;;;2.17;;
9986;SDS011;5033;46.310;11.214;2022-07-23T15:00:12;2.53;;;2.33;;
9986;SDS011;5033;46.310;11.214;2022-07-23T15:02:40;3.08;;;2.38;;
9986;SDS011;5033;46.310;11.214;2022-07-23T15:05:08;2.30;;;2.10;;
9986;SDS011;5033;46.310;11.214;2022-07-23T15:07:36;2.08;;;1.80;;
9986;SDS011;5033;46.310;11.214;2022-07-23T15:10:04;2.35;;;2.15;;
9986;SDS011;5033;46.310;11.214;2022-07-23T15:12:33;2.25;;;2.00;;
9986;SDS011;5033;46.310;11.214;2022-07-23T15:15:04;2.75;;;2.22;;
9986;SDS011;5033;46.310;11.214;2022-07-23T15:17:32;2.70;;;2.28;;
9986;SDS011;5033;46.310;11.214;2022-07-23T15:20:00;2.28;;;2.10;;
9986;SDS011;5033;46.310;11.214;2022-07-23T15:22:28;3.38;;;2.10;;
9986;SDS011;5033;46.310;11.214;2022-07-23T15:24:56;1.98;;;1.88;;